createdAt,value
2023-03-28T00:08:23.786Z,99329.47
2023-03-28T00:18:29.874Z,99335.56
2023-03-28T00:28:35.173Z,99348.47
2023-03-28T00:38:40.523Z,99359.75
2023-03-28T00:48:49.744Z,99364.69
2023-03-28T00:58:54.297Z,99377.34
2023-03-28T01:08:57.395Z,99388.91
2023-03-28T01:19:04.818Z,99392.06
2023-03-28T01:30:02.094Z,99402.22
2023-03-28T01:40:33.884Z,99414.13
2023-03-28T01:50:44.980Z,99421.84
2023-03-28T02:00:54.841Z,99432.34
2023-03-28T02:11:02.220Z,99445.06
2023-03-28T02:21:11.150Z,99445.16
2023-03-28T02:31:16.443Z,99457.34
2023-03-28T02:41:31.282Z,99462.72
2023-03-28T02:51:43.045Z,99475.78
2023-03-28T03:01:47.371Z,99479.03
2023-03-28T03:11:50.645Z,99491.81
2023-03-28T03:21:55.617Z,99491.25
2023-03-28T03:31:59.609Z,99496.44
2023-03-28T03:53:15.678Z,99515.63
2023-03-28T04:03:25.578Z,99524.50
2023-03-28T04:13:44.301Z,99530.91
2023-03-28T04:23:56.577Z,99543.22
2023-03-28T04:34:06.407Z,99555.41
2023-03-28T04:44:10.912Z,99563.75
2023-03-28T04:54:13.934Z,99580.81
2023-03-28T05:04:19.379Z,99596.44
2023-03-28T05:14:22.339Z,99609.38
2023-03-28T05:24:27.364Z,99625.75
2023-03-28T05:34:30.659Z,99638.59
2023-03-28T05:44:35.133Z,99655.16
2023-03-28T05:54:38.232Z,99670.75
2023-03-28T06:04:43.772Z,99683.84
2023-03-28T06:14:46.897Z,99697.59
2023-03-28T06:24:52.351Z,99711.25
2023-03-28T06:34:55.266Z,99726.34
2023-03-28T06:44:59.917Z,99739.34
2023-03-28T06:55:03.031Z,99750.28
2023-03-28T07:05:08.377Z,99764.66
2023-03-28T07:15:12.161Z,99774.56
2023-03-28T07:25:16.962Z,99785.00
2023-03-28T07:35:26.116Z,99797.41
2023-03-28T07:45:30.822Z,99806.97
2023-03-28T07:55:52.023Z,99811.84
2023-03-28T08:06:03.061Z,99812.56
2023-03-28T08:16:06.878Z,99826.88
2023-03-28T08:26:15.458Z,99832.34
2023-03-28T08:36:19.058Z,99841.47
2023-03-28T08:46:26.747Z,99855.28
2023-03-28T08:56:32.724Z,99869.84
2023-03-28T09:06:44.756Z,99882.53
2023-03-28T09:17:03.148Z,99891.06
2023-03-28T09:27:16.969Z,99901.72
2023-03-28T09:48:58.148Z,99920.13
2023-03-28T09:59:05.530Z,99928.53
2023-03-28T10:09:16.168Z,99940.81
2023-03-28T10:19:23.296Z,99955.41
2023-03-28T10:29:28.565Z,99969.63
2023-03-28T10:39:32.709Z,99976.44
2023-03-28T10:49:44.197Z,99988.16
2023-03-28T10:59:54.840Z,99993.22
2023-03-28T11:10:07.590Z,100007.06
2023-03-28T11:20:40.577Z,100021.91
2023-03-28T11:30:48.854Z,100035.06
2023-03-28T11:40:56.916Z,100045.06
2023-03-28T11:51:08.563Z,100054.34
2023-03-28T12:01:15.784Z,100060.75
2023-03-28T12:11:25.822Z,100066.47
2023-03-28T12:21:33.661Z,100079.63
2023-03-28T12:31:44.372Z,100091.50
2023-03-28T12:41:47.497Z,100100.59
2023-03-28T12:51:55.091Z,100111.25
2023-03-28T13:01:58.321Z,100111.97
2023-03-28T13:12:20.310Z,100116.16
2023-03-28T13:22:30.124Z,100121.41
2023-03-28T13:32:44.795Z,100130.66
2023-03-28T13:42:58.530Z,100135.22
2023-03-28T13:53:04.876Z,100141.56
2023-03-28T14:03:16.307Z,100140.94
2023-03-28T14:13:24.609Z,100144.31
2023-03-28T14:23:30.637Z,100151.38
2023-03-28T14:33:38.194Z,100156.13
2023-03-28T14:43:41.439Z,100160.44
2023-03-28T14:53:49.898Z,100163.34
2023-03-28T15:04:09.839Z,100168.72
2023-03-28T15:17:11.595Z,100167.09
2023-03-28T15:25:32.957Z,100164.50
2023-03-28T15:35:43.812Z,100171.75
2023-03-28T15:45:57.783Z,100166.66
2023-03-28T15:56:13.046Z,100157.41
2023-03-28T16:06:30.719Z,100165.16
2023-03-28T16:16:40.329Z,100163.94
2023-03-28T16:27:42.832Z,100162.13
2023-03-28T16:37:44.465Z,100165.50
2023-03-28T16:47:49.640Z,100169.97
2023-03-28T16:57:56.635Z,100177.97
2023-03-28T17:08:02.492Z,100190.44
2023-03-28T17:18:16.251Z,100199.13
2023-03-28T17:28:26.219Z,100211.66
2023-03-28T17:38:34.592Z,100218.97
2023-03-28T17:48:40.581Z,100227.19
2023-03-28T17:58:43.906Z,100235.66
2023-03-28T18:08:48.991Z,100247.16
2023-03-28T18:18:54.488Z,100258.69
2023-03-28T18:28:59.732Z,100271.03
2023-03-28T18:39:06.438Z,100280.88
2023-03-28T18:49:11.166Z,100292.94
2023-03-28T18:59:14.376Z,100304.75
2023-03-28T19:09:18.985Z,100314.59
2023-03-28T19:19:22.842Z,100322.53
2023-03-28T19:29:27.287Z,100330.63
2023-03-28T19:39:30.620Z,100337.91
2023-03-28T19:49:35.640Z,100341.94
2023-03-28T19:59:42.119Z,100349.00
2023-03-28T20:09:49.573Z,100354.53
2023-03-28T20:19:52.891Z,100364.31
2023-03-28T20:29:59.873Z,100373.44
2023-03-28T20:40:03.738Z,100377.91
2023-03-28T20:50:09.280Z,100386.03
2023-03-28T21:00:14.982Z,100394.25
2023-03-28T21:10:21.073Z,100398.34
2023-03-28T21:20:24.804Z,100397.59
2023-03-28T21:30:31.475Z,100403.38
2023-03-28T21:40:35.072Z,100405.22
2023-03-28T21:50:41.244Z,100417.44
2023-03-28T22:00:47.050Z,100430.25
2023-03-28T22:10:54.369Z,100435.44
2023-03-28T22:20:58.349Z,100446.56
2023-03-28T22:31:04.018Z,100454.09
2023-03-28T22:41:08.137Z,100460.09
2023-03-28T22:51:14.230Z,100460.34
2023-03-28T23:01:17.709Z,100470.91
2023-03-28T23:11:27.536Z,100477.56
2023-03-28T23:21:31.544Z,100482.06
2023-03-28T23:31:36.265Z,100485.53
2023-03-28T23:41:39.729Z,100493.28
2023-03-28T23:51:44.218Z,100498.31
